Time;durP1;ratioP1;P1;durP2;ratioP2;P2;SDS_P1;SDS_P2;PMS_P1;PMS_P2;Temp;Humidity;BMP_temperature;BMP_pressure;BME280_temperature;BME280_humidity;BME280_pressure;Samples;Min_cycle;Max_cycle;Signal;HPM_P1;HPM_P2
2023/12/17 00:01:07;;;;;;;20.53;11.83;;;;;;;4.96;99.30;101577.50;5092262;28;20239;-64
2023/12/17 00:03:35;;;;;;;17.80;12.83;;;;;;;4.97;98.56;101586.03;5101829;28;20682;-62
2023/12/17 00:06:03;;;;;;;16.63;11.53;;;;;;;5.01;98.70;101582.81;5098179;28;20316;-65
2023/12/17 00:08:32;;;;;;;16.07;11.50;;;;;;;5.03;98.51;101581.16;5092635;28;20232;-62
2023/12/17 00:11:00;;;;;;;17.60;12.60;;;;;;;5.06;97.95;101581.28;5097775;28;20708;-60
2023/12/17 00:13:28;;;;;;;17.87;12.10;;;;;;;5.07;98.15;101586.41;5096833;28;20208;-66
2023/12/17 00:15:57;;;;;;;21.60;12.83;;;;;;;5.09;98.10;101576.28;5095667;28;20189;-62
2023/12/17 00:18:25;;;;;;;14.90;11.10;;;;;;;5.12;97.94;101581.50;5101050;28;20200;-62
2023/12/17 00:20:53;;;;;;;20.03;12.50;;;;;;;5.12;97.09;101561.06;5091201;28;20231;-60
2023/12/17 00:23:21;;;;;;;18.13;12.60;;;;;;;5.13;97.16;101556.81;5092284;28;20204;-60
2023/12/17 00:25:52;;;;;;;17.10;12.03;;;;;;;5.15;96.93;101548.38;5095083;28;20215;-60
2023/12/17 00:28:20;;;;;;;20.00;11.97;;;;;;;5.16;96.93;101547.56;5095859;28;20213;-60
2023/12/17 00:30:48;;;;;;;14.30;11.03;;;;;;;5.17;96.38;101544.19;5081504;28;20248;-58
2023/12/17 00:33:16;;;;;;;18.83;11.80;;;;;;;5.18;96.69;101558.69;5086674;28;20288;-64
2023/12/17 00:35:44;;;;;;;20.30;12.20;;;;;;;5.22;95.88;101550.31;5092070;28;20207;-62
2023/12/17 00:38:12;;;;;;;17.93;10.27;;;;;;;5.23;96.05;101580.19;5092610;28;20196;-63
2023/12/17 00:40:40;;;;;;;17.33;10.67;;;;;;;5.24;96.30;101571.69;5095453;28;20250;-68
2023/12/17 00:43:09;;;;;;;14.50;11.13;;;;;;;5.28;96.00;101559.91;5093084;28;20203;-60
2023/12/17 00:45:37;;;;;;;13.53;10.77;;;;;;;5.31;95.74;101558.31;5091928;28;20212;-61
2023/12/17 00:48:05;;;;;;;16.07;10.93;;;;;;;5.33;95.79;101560.91;5088368;28;20246;-60
2023/12/17 00:50:34;;;;;;;17.37;12.57;;;;;;;5.34;95.14;101572.88;5085755;28;20294;-60
2023/12/17 00:53:02;;;;;;;13.70;10.73;;;;;;;5.36;95.22;101565.25;5094493;28;20236;-60
2023/12/17 00:55:30;;;;;;;15.87;10.30;;;;;;;5.39;95.02;101550.03;5092573;28;20250;-61
2023/12/17 00:57:58;;;;;;;19.73;11.50;;;;;;;5.40;94.50;101562.84;5092253;28;20198;-61
2023/12/17 01:00:28;;;;;;;16.13;11.10;;;;;;;5.44;93.94;101563.81;5091455;28;20235;-63
2023/12/17 01:02:56;;;;;;;20.43;12.13;;;;;;;5.45;93.49;101550.22;5097733;28;20231;-63
2023/12/17 01:05:24;;;;;;;16.57;10.93;;;;;;;5.47;93.55;101551.16;5093105;28;20740;-60
2023/12/17 01:07:52;;;;;;;14.33;10.40;;;;;;;5.50;93.58;101553.81;5094030;28;20226;-61
2023/12/17 01:10:20;;;;;;;16.40;10.20;;;;;;;5.50;93.16;101580.25;5101595;28;20204;-59
2023/12/17 01:12:48;;;;;;;20.57;12.07;;;;;;;5.53;92.88;101551.38;5100381;28;20254;-62
2023/12/17 01:15:16;;;;;;;14.47;10.67;;;;;;;5.53;92.94;101546.25;5094477;28;20193;-59
2023/12/17 01:17:45;;;;;;;18.07;10.67;;;;;;;5.54;93.35;101535.22;5094717;28;20206;-64
2023/12/17 01:20:14;;;;;;;17.47;11.47;;;;;;;5.55;92.93;101532.69;5099817;28;20215;-60
2023/12/17 01:22:43;;;;;;;14.33;10.43;;;;;;;5.57;92.93;101537.88;5100626;28;20197;-67
2023/12/17 01:25:11;;;;;;;16.77;12.60;;;;;;;5.57;93.30;101531.06;5090376;28;20213;-60
2023/12/17 01:27:39;;;;;;;15.70;11.23;;;;;;;5.58;93.16;101526.81;5103893;28;20651;-61
2023/12/17 01:30:08;;;;;;;18.23;11.47;;;;;;;5.56;93.70;101511.44;5091678;28;20250;-59
2023/12/17 01:32:36;;;;;;;18.67;11.70;;;;;;;5.57;93.50;101502.06;5091721;28;20642;-59
2023/12/17 01:35:08;;;;;;;22.27;12.43;;;;;;;5.55;93.04;101511.38;5083828;28;20201;-59
2023/12/17 01:37:36;;;;;;;21.77;13.03;;;;;;;5.55;93.69;101513.91;5093574;28;20197;-62
2023/12/17 01:40:05;;;;;;;18.93;11.93;;;;;;;5.55;93.89;101531.81;5095726;28;20210;-60
2023/12/17 01:42:33;;;;;;;18.73;12.67;;;;;;;5.55;93.61;101524.16;5093128;28;20659;-66
2023/12/17 01:45:01;;;;;;;18.80;12.73;;;;;;;5.57;93.82;101507.19;5092586;28;20217;-61
2023/12/17 01:47:29;;;;;;;22.73;12.97;;;;;;;5.56;93.95;101497.78;5089913;28;20671;-63
2023/12/17 01:49:57;;;;;;;17.60;11.67;;;;;;;5.56;94.12;101500.34;5096182;28;20192;-61
2023/12/17 01:52:26;;;;;;;16.70;12.77;;;;;;;5.57;94.13;101504.63;5092940;28;20201;-61
2023/12/17 01:54:55;;;;;;;21.83;13.93;;;;;;;5.56;93.77;101521.66;5090882;28;20274;-61
2023/12/17 01:57:23;;;;;;;22.27;12.57;;;;;;;5.57;94.04;101522.53;5098949;28;20211;-61
2023/12/17 01:59:51;;;;;;;22.30;14.97;;;;;;;5.57;94.39;101528.50;5092411;28;20246;-61
2023/12/17 02:02:20;;;;;;;21.00;14.10;;;;;;;5.56;94.58;101513.13;5090783;28;20207;-61
2023/12/17 02:04:48;;;;;;;21.93;13.63;;;;;;;5.56;94.67;101479.91;5091573;28;20214;-62
2023/12/17 02:07:16;;;;;;;18.73;12.53;;;;;;;5.57;95.28;101491.84;5092764;28;21237;-62
2023/12/17 02:09:46;;;;;;;20.70;12.57;;;;;;;5.58;95.40;101488.47;5097096;28;20719;-62
2023/12/17 02:12:24;;;;;;;22.20;13.63;;;;;;;5.58;94.89;101473.97;5092206;28;20730;-61
2023/12/17 02:14:52;;;;;;;22.47;13.90;;;;;;;5.58;95.19;101485.91;5093142;28;20207;-59
2023/12/17 02:17:26;;;;;;;18.90;14.70;;;;;;;5.57;95.17;101473.94;5092776;28;20287;-60
2023/12/17 02:19:54;;;;;;;17.43;11.40;;;;;;;5.57;95.09;101487.59;5093979;28;20231;-61
2023/12/17 02:22:23;;;;;;;20.67;13.80;;;;;;;5.58;96.07;101493.56;5095356;28;20197;-62
2023/12/17 02:24:53;;;;;;;20.37;13.73;;;;;;;5.59;95.91;101482.53;5095720;28;20212;-61
2023/12/17 02:27:22;;;;;;;21.77;12.63;;;;;;;5.59;95.61;101477.41;5089083;28;20257;-60
2023/12/17 02:29:50;;;;;;;24.17;14.03;;;;;;;5.58;95.92;101486.78;5091556;28;20197;-60
2023/12/17 02:32:20;;;;;;;20.57;12.83;;;;;;;5.59;96.45;101485.06;5090775;28;20197;-62
2023/12/17 02:34:49;;;;;;;18.13;11.33;;;;;;;5.59;96.33;101485.06;5091421;28;20201;-61
2023/12/17 02:37:17;;;;;;;18.03;13.03;;;;;;;5.58;96.62;101488.47;5090358;28;20197;-61
2023/12/17 02:39:45;;;;;;;25.17;13.80;;;;;;;5.59;97.37;101474.84;5093481;28;20711;-61
2023/12/17 02:42:17;;;;;;;21.40;13.20;;;;;;;5.57;97.01;101468.84;5100068;28;20200;-60
2023/12/17 02:44:45;;;;;;;24.77;15.27;;;;;;;5.58;97.33;101491.88;5094249;28;20212;-61
2023/12/17 02:47:13;;;;;;;22.60;14.00;;;;;;;5.59;97.83;101477.41;5098293;28;20532;-61
2023/12/17 02:49:42;;;;;;;18.43;14.17;;;;;;;5.58;97.77;101491.88;5098672;28;20246;-59
2023/12/17 02:52:10;;;;;;;22.63;14.80;;;;;;;5.59;97.75;101513.19;5103156;28;20570;-61
2023/12/17 02:54:38;;;;;;;18.40;13.20;;;;;;;5.59;98.03;101487.63;5091504;28;20655;-59
2023/12/17 02:57:06;;;;;;;20.60;13.40;;;;;;;5.58;98.50;101475.69;5090356;28;20638;-63
2023/12/17 02:59:35;;;;;;;23.90;15.00;;;;;;;5.59;98.64;101485.06;5101509;28;20204;-61
2023/12/17 03:02:04;;;;;;;22.87;14.10;;;;;;;5.58;98.43;101485.91;5094517;28;20201;-61
2023/12/17 03:04:31;;;;;;;21.63;14.33;;;;;;;5.60;98.80;101485.94;5093989;28;20250;-60
2023/12/17 03:06:59;;;;;;;21.60;14.23;;;;;;;5.61;98.41;101462.13;5090716;28;20586;-63
2023/12/17 03:09:27;;;;;;;22.00;14.73;;;;;;;5.62;98.86;101469.84;5098957;28;20192;-62
2023/12/17 03:11:55;;;;;;;20.23;13.13;;;;;;;5.62;98.86;101482.63;5094871;28;20208;-58
2023/12/17 03:14:24;;;;;;;23.03;13.90;;;;;;;5.61;98.91;101501.34;5090181;28;20669;-59
2023/12/17 03:16:53;;;;;;;25.90;13.80;;;;;;;5.64;98.76;101500.59;5095560;28;20211;-59
2023/12/17 03:19:21;;;;;;;26.50;16.20;;;;;;;5.65;98.63;101502.31;5094001;28;20241;-63
2023/12/17 03:21:49;;;;;;;22.10;14.83;;;;;;;5.66;99.24;101469.09;5103371;28;20603;-61
2023/12/17 03:24:17;;;;;;;23.80;15.83;;;;;;;5.66;98.74;101496.38;5106142;28;20564;-61
2023/12/17 03:26:45;;;;;;;26.80;14.27;;;;;;;5.66;99.41;101491.25;5102931;28;20709;-62
2023/12/17 03:29:13;;;;;;;26.77;14.97;;;;;;;5.66;99.05;101507.47;5105252;28;20696;-62
2023/12/17 03:31:41;;;;;;;24.77;14.37;;;;;;;5.67;99.25;101511.78;5099160;28;20300;-60
2023/12/17 03:34:11;;;;;;;22.43;15.33;;;;;;;5.67;99.41;101487.88;5094592;28;20197;-62
2023/12/17 03:36:39;;;;;;;26.93;15.50;;;;;;;5.67;100.00;101487.88;5100724;28;20562;-61
2023/12/17 03:39:08;;;;;;;26.23;15.80;;;;;;;5.65;100.00;101492.94;5107853;28;20291;-62
2023/12/17 03:41:36;;;;;;;29.53;15.13;;;;;;;5.66;100.00;101487.00;5100115;28;20212;-59
2023/12/17 03:44:04;;;;;;;22.83;14.27;;;;;;;5.67;99.95;101508.34;5092476;28;20618;-61
2023/12/17 03:46:32;;;;;;;20.17;15.20;;;;;;;5.65;100.00;101500.63;5101690;28;20218;-65
2023/12/17 03:49:00;;;;;;;24.30;15.40;;;;;;;5.68;100.00;101487.06;5094180;28;20232;-62
2023/12/17 03:51:30;;;;;;;21.83;14.10;;;;;;;5.66;100.00;101484.44;5098169;28;20644;-65
2023/12/17 03:53:58;;;;;;;26.20;15.47;;;;;;;5.69;100.00;101476.03;5092978;28;20213;-64
2023/12/17 03:56:26;;;;;;;30.20;16.53;;;;;;;5.70;100.00;101472.63;5099851;28;20215;-61
2023/12/17 03:58:54;;;;;;;26.63;14.73;;;;;;;5.69;100.00;101478.56;5096425;28;20974;-61
2023/12/17 04:01:23;;;;;;;25.83;15.70;;;;;;;5.70;100.00;101478.59;5086747;28;20204;-61
2023/12/17 04:03:50;;;;;;;25.77;14.43;;;;;;;5.69;100.00;101478.56;5094401;28;20201;-62
2023/12/17 04:06:19;;;;;;;24.93;18.13;;;;;;;5.68;100.00;101471.72;5098551;28;20686;-62
2023/12/17 04:08:52;;;;;;;24.30;16.77;;;;;;;5.68;100.00;101477.72;5094145;28;20296;-61
2023/12/17 04:11:22;;;;;;;23.43;16.07;;;;;;;5.68;100.00;101484.53;5097237;28;20655;-61
2023/12/17 04:13:50;;;;;;;26.30;16.37;;;;;;;5.68;100.00;101493.06;5091967;28;20296;-61
2023/12/17 04:16:18;;;;;;;21.87;14.97;;;;;;;5.70;100.00;101496.50;5102772;28;20673;-60
2023/12/17 04:18:46;;;;;;;28.80;16.73;;;;;;;5.70;100.00;101501.63;5097852;28;20277;-59
2023/12/17 04:21:14;;;;;;;27.43;16.43;;;;;;;5.69;100.00;101499.91;5096029;28;20203;-61
2023/12/17 04:23:42;;;;;;;25.80;16.13;;;;;;;5.70;100.00;101496.50;5098228;28;20299;-61
2023/12/17 04:26:13;;;;;;;27.90;16.17;;;;;;;5.70;100.00;101476.06;5095037;28;20200;-62
2023/12/17 04:28:41;;;;;;;22.67;14.67;;;;;;;5.69;100.00;101469.22;5085968;28;20226;-60
2023/12/17 04:31:08;;;;;;;28.90;18.10;;;;;;;5.71;100.00;101479.50;5095632;28;20204;-61
2023/12/17 04:33:36;;;;;;;26.17;16.60;;;;;;;5.69;100.00;101479.44;5100398;28;20208;-61
2023/12/17 04:36:05;;;;;;;28.23;16.13;;;;;;;5.70;100.00;101483.72;5093120;28;20253;-60
2023/12/17 04:38:33;;;;;;;24.03;16.53;;;;;;;5.70;100.00;101481.16;5091236;28;20201;-66
2023/12/17 04:41:01;;;;;;;27.10;16.73;;;;;;;5.69;100.00;101479.44;5091212;28;20204;-62
2023/12/17 04:43:30;;;;;;;26.43;17.03;;;;;;;5.68;100.00;101480.28;5102054;28;20204;-61
2023/12/17 04:45:58;;;;;;;29.53;17.57;;;;;;;5.71;100.00;101482.94;5091615;28;20196;-60
2023/12/17 04:48:26;;;;;;;27.57;17.13;;;;;;;5.66;100.00;101471.66;5095528;28;20241;-60
2023/12/17 04:50:54;;;;;;;26.50;16.70;;;;;;;5.71;100.00;101482.06;5099763;28;20213;-61
2023/12/17 04:53:22;;;;;;;28.37;17.27;;;;;;;5.73;100.00;101494.06;5095468;28;20207;-62
2023/12/17 04:55:50;;;;;;;22.37;15.50;;;;;;;5.73;100.00;101496.63;5082782;28;20580;-63
2023/12/17 04:58:18;;;;;;;30.73;18.50;;;;;;;5.72;100.00;101492.31;5081421;28;20192;-61
2023/12/17 05:00:48;;;;;;;29.33;18.17;;;;;;;5.74;100.00;101483.03;5094621;28;20646;-63
2023/12/17 05:03:16;;;;;;;26.90;18.00;;;;;;;5.75;100.00;101482.19;5086617;28;20215;-62
2023/12/17 05:05:44;;;;;;;27.00;16.60;;;;;;;5.76;100.00;101472.84;5095320;28;20735;-63
2023/12/17 05:08:12;;;;;;;29.53;18.43;;;;;;;5.76;100.00;101476.25;5094868;28;21163;-64
2023/12/17 05:10:41;;;;;;;24.77;16.97;;;;;;;5.77;100.00;101474.56;5096978;28;20219;-60
2023/12/17 05:13:09;;;;;;;27.27;17.97;;;;;;;5.78;100.00;101476.28;5093719;28;20204;-61
2023/12/17 05:15:37;;;;;;;34.63;20.20;;;;;;;5.79;100.00;101501.94;5089988;28;20236;-60
2023/12/17 05:18:07;;;;;;;29.70;19.13;;;;;;;5.80;100.00;101493.44;5079593;28;20731;-60
2023/12/17 05:20:35;;;;;;;30.17;16.83;;;;;;;5.82;100.00;101498.63;5101888;28;20207;-62
2023/12/17 05:23:03;;;;;;;23.07;16.97;;;;;;;5.85;100.00;101506.34;5081030;28;20205;-63
2023/12/17 05:25:31;;;;;;;27.57;17.70;;;;;;;5.84;100.00;101507.19;5091054;28;20201;-69
2023/12/17 05:27:59;;;;;;;24.57;18.13;;;;;;;5.88;100.00;101500.47;5095802;28;20222;-59
2023/12/17 05:30:27;;;;;;;27.93;17.10;;;;;;;5.88;100.00;101501.34;5093149;28;20207;-62
2023/12/17 05:32:55;;;;;;;28.57;15.97;;;;;;;5.91;100.00;101515.91;5094435;28;20205;-60
2023/12/17 05:35:24;;;;;;;28.47;18.40;;;;;;;5.91;100.00;101503.13;5097455;28;20204;-60
2023/12/17 05:37:52;;;;;;;29.03;18.83;;;;;;;5.93;100.00;101512.63;5101988;28;20279;-59
2023/12/17 05:40:20;;;;;;;24.17;16.37;;;;;;;5.94;100.00;101510.94;5088989;28;20666;-60
2023/12/17 05:42:48;;;;;;;25.87;17.67;;;;;;;5.95;100.00;101515.22;5091944;28;20301;-60
2023/12/17 05:45:16;;;;;;;25.80;16.80;;;;;;;5.95;100.00;101520.34;5089954;28;20236;-61
2023/12/17 05:47:44;;;;;;;24.97;17.30;;;;;;;5.96;100.00;101527.19;5097992;28;20694;-62
2023/12/17 05:50:13;;;;;;;27.00;15.83;;;;;;;5.97;100.00;101521.28;5093117;28;20200;-60
2023/12/17 05:52:43;;;;;;;24.73;16.07;;;;;;;5.99;100.00;101532.41;5088812;28;20209;-60
2023/12/17 05:55:10;;;;;;;27.63;16.67;;;;;;;5.99;100.00;101529.84;5100402;28;20592;-59
2023/12/17 05:57:38;;;;;;;24.33;15.10;;;;;;;6.01;100.00;101533.34;5094980;28;20622;-59
2023/12/17 06:00:08;;;;;;;24.97;16.50;;;;;;;6.02;100.00;101529.94;5089375;28;20565;-62
2023/12/17 06:02:36;;;;;;;26.57;16.33;;;;;;;6.05;100.00;101530.03;5090474;28;20643;-61
2023/12/17 06:05:05;;;;;;;24.97;17.20;;;;;;;6.05;100.00;101530.03;5091471;28;20200;-60
2023/12/17 06:07:33;;;;;;;25.17;15.83;;;;;;;6.06;100.00;101526.66;5093412;28;20547;-65
2023/12/17 06:10:03;;;;;;;27.67;15.83;;;;;;;6.09;100.00;101537.00;5091089;28;20207;-61
2023/12/17 06:12:31;;;;;;;25.37;14.70;;;;;;;6.09;100.00;101542.09;5088537;28;20208;-60
2023/12/17 06:14:58;;;;;;;27.87;15.97;;;;;;;6.12;100.00;101538.78;5090334;28;20292;-61
2023/12/17 06:17:26;;;;;;;24.40;15.17;;;;;;;6.12;100.00;101536.22;5088890;28;20192;-59
2023/12/17 06:19:54;;;;;;;23.57;15.33;;;;;;;6.13;100.00;101538.81;5086137;28;20229;-60
2023/12/17 06:22:24;;;;;;;24.37;15.27;;;;;;;6.14;100.00;101543.09;5094502;28;20617;-61
2023/12/17 06:24:52;;;;;;;22.53;15.87;;;;;;;6.15;100.00;101532.06;5096761;28;20208;-64
2023/12/17 06:27:21;;;;;;;24.37;15.40;;;;;;;6.17;100.00;101532.97;5094372;28;20197;-61
2023/12/17 06:29:52;;;;;;;29.93;16.57;;;;;;;6.19;100.00;101556.06;5096132;28;20593;-60
2023/12/17 06:32:20;;;;;;;25.70;15.43;;;;;;;6.18;100.00;101542.38;5096484;28;20205;-60
2023/12/17 06:34:48;;;;;;;31.23;17.80;;;;;;;6.17;100.00;101543.19;5079218;28;20209;-59
2023/12/17 06:37:15;;;;;;;26.97;15.67;;;;;;;6.19;100.00;101539.00;5087258;28;20208;-60
2023/12/17 06:39:43;;;;;;;26.97;15.70;;;;;;;6.18;100.00;101532.13;5092801;28;20215;-62
2023/12/17 06:42:11;;;;;;;22.97;16.23;;;;;;;6.19;100.00;101531.34;5090375;28;20226;-59
2023/12/17 06:44:41;;;;;;;28.40;15.93;;;;;;;6.18;100.00;101542.38;5088599;28;20198;-61
2023/12/17 06:47:08;;;;;;;23.03;15.73;;;;;;;6.19;100.00;101543.28;5091724;28;20228;-64
2023/12/17 06:49:49;;;;;;;24.87;15.00;;;;;;;6.18;100.00;101547.50;5094337;28;20200;-61
2023/12/17 06:52:17;;;;;;;22.53;14.90;;;;;;;6.20;100.00;101535.63;5104649;28;20216;-61
2023/12/17 06:54:45;;;;;;;29.13;15.90;;;;;;;6.20;100.00;101548.41;5093893;28;20255;-61
2023/12/17 06:57:13;;;;;;;24.63;16.07;;;;;;;6.23;100.00;101540.84;5103674;28;20211;-60
2023/12/17 06:59:42;;;;;;;28.73;17.00;;;;;;;6.23;100.00;101548.53;5094413;28;20655;-61
2023/12/17 07:02:10;;;;;;;21.67;15.10;;;;;;;6.23;100.00;101550.22;5088637;28;20208;-62
2023/12/17 07:04:38;;;;;;;25.77;17.93;;;;;;;6.24;100.00;101551.94;5086535;28;20205;-63
2023/12/17 07:07:06;;;;;;;26.60;16.57;;;;;;;6.25;100.00;101571.59;5097815;28;20205;-61
2023/12/17 07:09:34;;;;;;;26.07;15.57;;;;;;;6.25;100.00;101561.34;5097037;28;20240;-61
2023/12/17 07:12:02;;;;;;;28.07;16.03;;;;;;;6.23;100.00;101556.19;5098058;28;20210;-62
2023/12/17 07:14:30;;;;;;;26.13;16.60;;;;;;;6.26;100.00;101579.34;5100730;28;20204;-61
2023/12/17 07:16:59;;;;;;;24.50;15.07;;;;;;;6.26;100.00;101594.69;5094837;28;20232;-62
2023/12/17 07:19:28;;;;;;;21.40;15.53;;;;;;;6.28;100.00;101595.59;5097553;28;20647;-62
2023/12/17 07:21:56;;;;;;;25.30;15.47;;;;;;;6.30;100.00;101598.22;5093486;28;20203;-61
2023/12/17 07:24:25;;;;;;;29.27;17.07;;;;;;;6.31;100.00;101599.06;5096791;28;20227;-60
2023/12/17 07:26:54;;;;;;;25.77;16.23;;;;;;;6.33;100.00;101605.09;5095408;28;20193;-64
2023/12/17 07:29:22;;;;;;;26.30;15.93;;;;;;;6.34;100.00;101599.19;5091798;28;20205;-62
2023/12/17 07:31:49;;;;;;;23.70;16.17;;;;;;;6.33;100.00;101599.97;5106114;28;20219;-62
2023/12/17 07:34:19;;;;;;;27.53;15.77;;;;;;;6.33;100.00;101593.16;5093502;28;20208;-62
2023/12/17 07:36:49;;;;;;;24.83;15.60;;;;;;;6.34;100.00;101594.91;5097695;28;20207;-62
2023/12/17 07:39:18;;;;;;;31.07;16.83;;;;;;;6.36;100.00;101600.06;5090579;28;20224;-61
2023/12/17 07:41:47;;;;;;;23.23;15.93;;;;;;;6.37;100.00;101600.13;5093038;28;20236;-61
2023/12/17 07:44:15;;;;;;;26.53;15.90;;;;;;;6.38;100.00;101612.09;5095064;28;20341;-68
2023/12/17 07:46:43;;;;;;;26.33;17.63;;;;;;;6.40;100.00;101619.81;5095143;28;20226;-61
2023/12/17 07:49:13;;;;;;;25.33;16.13;;;;;;;6.40;100.00;101615.56;5102802;28;20228;-61
2023/12/17 07:51:44;;;;;;;25.10;16.90;;;;;;;6.41;100.00;101612.22;5092594;28;20253;-60
2023/12/17 07:54:12;;;;;;;23.53;16.20;;;;;;;6.42;100.00;101600.28;5095879;28;20293;-61
2023/12/17 07:56:42;;;;;;;26.90;16.40;;;;;;;6.45;100.00;101623.41;5098298;28;20573;-61
2023/12/17 07:59:10;;;;;;;23.90;15.03;;;;;;;6.45;100.00;101624.28;5090195;28;20206;-60
2023/12/17 08:01:38;;;;;;;24.30;17.17;;;;;;;6.47;100.00;101619.19;5094015;28;20652;-61
2023/12/17 08:04:07;;;;;;;21.87;14.40;;;;;;;6.47;100.00;101627.75;5087506;28;20283;-62
2023/12/17 08:06:35;;;;;;;21.20;15.17;;;;;;;6.49;100.00;101620.13;5089941;28;20687;-61
2023/12/17 08:09:05;;;;;;;22.77;14.60;;;;;;;6.51;100.00;101619.31;5089354;28;20244;-60
2023/12/17 08:11:34;;;;;;;25.47;15.13;;;;;;;6.53;100.00;101615.13;5097535;28;20212;-60
2023/12/17 08:14:03;;;;;;;23.20;15.57;;;;;;;6.54;100.00;101621.13;5099502;28;20204;-60
2023/12/17 08:16:31;;;;;;;25.13;15.07;;;;;;;6.56;100.00;101624.59;5092768;28;20204;-60
2023/12/17 08:18:59;;;;;;;24.70;14.07;;;;;;;6.58;100.00;101635.75;5093696;28;20676;-61
2023/12/17 08:21:27;;;;;;;24.90;14.00;;;;;;;6.60;100.00;101639.25;5094716;28;20266;-62
2023/12/17 08:23:56;;;;;;;26.00;15.07;;;;;;;6.62;100.00;101647.81;5088711;28;20263;-59
2023/12/17 08:26:25;;;;;;;22.23;14.80;;;;;;;6.65;100.00;101653.03;5100041;28;20694;-61
2023/12/17 08:28:53;;;;;;;23.23;15.27;;;;;;;6.66;100.00;101644.53;5095395;28;20663;-61
2023/12/17 08:31:22;;;;;;;24.17;15.83;;;;;;;6.66;100.00;101644.53;5104178;28;20206;-60
2023/12/17 08:33:52;;;;;;;24.10;15.50;;;;;;;6.67;100.00;101646.28;5095055;28;20208;-59
2023/12/17 08:36:23;;;;;;;24.70;16.93;;;;;;;6.67;100.00;101642.84;5100417;28;20198;-61
2023/12/17 08:38:51;;;;;;;28.30;15.83;;;;;;;6.66;100.00;101639.41;5092937;28;20197;-60
2023/12/17 08:41:19;;;;;;;25.00;14.80;;;;;;;6.67;100.00;101646.28;5094722;28;20330;-60
2023/12/17 08:43:48;;;;;;;23.23;15.33;;;;;;;6.69;100.00;101641.19;5096488;28;20201;-59
2023/12/17 08:46:16;;;;;;;21.87;14.17;;;;;;;6.70;100.00;101645.47;5094691;28;20586;-60
2023/12/17 08:48:44;;;;;;;25.30;14.47;;;;;;;6.70;100.00;101636.13;5089648;28;20326;-61
2023/12/17 08:51:13;;;;;;;21.77;15.20;;;;;;;6.72;100.00;101647.28;5096992;28;20232;-59
2023/12/17 08:53:41;;;;;;;20.70;14.57;;;;;;;6.74;100.00;101643.09;5104103;28;20674;-60
2023/12/17 08:56:09;;;;;;;23.90;14.77;;;;;;;6.77;100.00;101637.16;5086258;28;20208;-61
2023/12/17 08:58:37;;;;;;;21.33;14.47;;;;;;;6.76;100.00;101636.28;5111757;28;20556;-59
2023/12/17 09:01:07;;;;;;;22.93;14.60;;;;;;;6.78;100.00;101644.91;5091649;28;20651;-62
2023/12/17 09:03:35;;;;;;;23.73;15.63;;;;;;;6.79;100.00;101645.78;5088940;28;20210;-59
2023/12/17 09:06:03;;;;;;;19.10;13.90;;;;;;;6.80;100.00;101631.28;5091824;28;20296;-62
2023/12/17 09:08:31;;;;;;;23.70;14.47;;;;;;;6.80;100.00;101636.38;5092200;28;20258;-60
2023/12/17 09:10:59;;;;;;;22.80;14.70;;;;;;;6.83;100.00;101633.94;5090365;28;20263;-61
2023/12/17 09:13:27;;;;;;;22.23;14.80;;;;;;;6.84;100.00;101628.84;5088964;28;20235;-62
2023/12/17 09:15:55;;;;;;;22.63;15.70;;;;;;;6.83;100.00;101626.25;5098968;28;20207;-60
2023/12/17 09:18:24;;;;;;;24.37;15.40;;;;;;;6.86;100.00;101631.47;5094025;28;20556;-60
2023/12/17 09:20:52;;;;;;;23.83;15.13;;;;;;;6.86;100.00;101636.59;5099355;28;20284;-60
2023/12/17 09:23:20;;;;;;;21.73;14.90;;;;;;;6.86;100.00;101628.91;5101037;28;20283;-60
2023/12/17 09:25:48;;;;;;;27.27;16.07;;;;;;;6.86;100.00;101636.59;5087642;28;20669;-62
2023/12/17 09:28:16;;;;;;;27.77;16.63;;;;;;;6.87;100.00;101641.75;5091934;28;20613;-62
2023/12/17 09:30:44;;;;;;;24.33;16.63;;;;;;;6.86;100.00;101636.59;5091650;28;20248;-62
2023/12/17 09:33:13;;;;;;;23.47;16.13;;;;;;;6.84;100.00;101639.09;5091853;28;20196;-63
2023/12/17 09:35:42;;;;;;;23.53;15.47;;;;;;;6.86;100.00;101634.03;5091141;28;20200;-62
2023/12/17 09:38:11;;;;;;;23.60;16.47;;;;;;;6.84;100.00;101630.53;5092763;28;20200;-61
2023/12/17 09:40:39;;;;;;;28.60;16.93;;;;;;;6.83;100.00;101628.81;5080193;28;20204;-63
2023/12/17 09:43:10;;;;;;;26.97;16.57;;;;;;;6.84;100.00;101633.09;5091021;28;20709;-60
2023/12/17 09:45:38;;;;;;;24.03;16.80;;;;;;;6.83;100.00;101633.94;5089536;28;20200;-60
2023/12/17 09:48:06;;;;;;;30.13;18.00;;;;;;;6.81;100.00;101643.25;5088907;28;20252;-59
2023/12/17 09:50:35;;;;;;;32.00;18.67;;;;;;;6.80;100.00;101636.38;5089642;28;20221;-60
2023/12/17 09:53:04;;;;;;;27.63;17.40;;;;;;;6.80;100.00;101638.94;5090177;28;20662;-62
2023/12/17 09:55:32;;;;;;;26.70;16.40;;;;;;;6.82;100.00;101642.44;5092242;28;20209;-61
2023/12/17 09:58:03;;;;;;;24.93;17.00;;;;;;;6.82;100.00;101634.75;5099404;28;20200;-61
2023/12/17 10:00:31;;;;;;;25.43;17.60;;;;;;;6.84;100.00;101639.09;5099053;28;20246;-60
2023/12/17 10:03:04;;;;;;;25.20;17.70;;;;;;;6.84;100.00;101640.78;5091362;28;20196;-60
2023/12/17 10:05:33;;;;;;;26.77;17.67;;;;;;;6.81;100.00;101627.88;5083608;28;20701;-64
2023/12/17 10:08:01;;;;;;;28.87;17.63;;;;;;;6.79;100.00;101622.72;5100194;28;20639;-61
2023/12/17 10:10:30;;;;;;;25.80;17.37;;;;;;;6.81;100.00;101633.00;5098901;28;20671;-60
2023/12/17 10:12:58;;;;;;;25.97;17.33;;;;;;;6.80;100.00;101616.75;5089576;28;20571;-61
2023/12/17 10:15:26;;;;;;;26.83;16.73;;;;;;;6.82;100.00;101614.25;5092533;28;20624;-60
2023/12/17 10:17:54;;;;;;;26.33;18.13;;;;;;;6.81;100.00;101607.38;5086798;28;20602;-61
2023/12/17 10:20:23;;;;;;;25.77;17.40;;;;;;;6.83;100.00;101613.44;5096283;28;20195;-61
2023/12/17 10:22:58;;;;;;;24.87;16.13;;;;;;;6.84;100.00;101616.03;5090224;28;20206;-65
2023/12/17 10:25:26;;;;;;;27.27;18.40;;;;;;;6.86;100.00;101616.09;5095808;28;20616;-66
2023/12/17 10:27:59;;;;;;;23.00;16.10;;;;;;;6.86;100.00;101616.94;5108475;28;20200;-60
2023/12/17 10:30:29;;;;;;;25.27;16.47;;;;;;;6.86;100.00;101614.38;5085638;28;20303;-62
2023/12/17 10:32:59;;;;;;;27.30;16.83;;;;;;;6.88;100.00;101620.41;5103630;28;20207;-61
2023/12/17 10:35:30;;;;;;;26.80;15.30;;;;;;;6.89;100.00;101611.06;5092155;28;20668;-60
2023/12/17 10:38:00;;;;;;;24.03;15.33;;;;;;;6.87;100.00;101612.69;5093323;28;20200;-61
2023/12/17 10:40:28;;;;;;;25.37;15.53;;;;;;;6.92;100.00;101621.38;5103550;28;20211;-63
2023/12/17 10:42:59;;;;;;;25.97;16.10;;;;;;;6.93;100.00;101625.69;5094083;28;20224;-60
2023/12/17 10:45:31;;;;;;;24.53;17.03;;;;;;;6.93;100.00;101610.31;5093025;28;20675;-62
2023/12/17 10:48:00;;;;;;;21.97;15.60;;;;;;;6.92;100.00;101621.38;5093715;28;20327;-61
2023/12/17 10:50:28;;;;;;;24.10;16.17;;;;;;;6.92;100.00;101619.69;5091260;28;20258;-61
2023/12/17 10:52:56;;;;;;;27.90;16.73;;;;;;;6.92;100.00;101611.13;5086973;28;20212;-64
2023/12/17 10:55:24;;;;;;;25.13;17.13;;;;;;;6.88;100.00;101604.16;5098094;28;20232;-67
2023/12/17 10:57:58;;;;;;;21.70;15.90;;;;;;;6.88;100.00;101599.03;5088644;28;20209;-59
2023/12/17 11:00:31;;;;;;;23.73;16.70;;;;;;;6.90;100.00;101605.09;5093475;28;20197;-62
2023/12/17 11:03:00;;;;;;;25.00;16.30;;;;;;;6.89;100.00;101601.66;5091971;28;20208;-61
2023/12/17 11:05:29;;;;;;;24.13;16.03;;;;;;;6.87;100.00;101598.19;5091474;28;20215;-60
2023/12/17 11:07:56;;;;;;;24.73;17.07;;;;;;;6.90;100.00;101608.53;5091910;28;20226;-61
2023/12/17 11:10:26;;;;;;;21.50;15.37;;;;;;;6.92;100.00;101600.88;5099097;28;20240;-62
2023/12/17 11:12:55;;;;;;;24.17;16.30;;;;;;;6.94;100.00;101594.97;5099912;28;20744;-58
2023/12/17 11:15:25;;;;;;;27.13;15.83;;;;;;;6.96;100.00;101603.59;5087577;28;20608;-62
2023/12/17 11:17:55;;;;;;;22.97;15.37;;;;;;;6.97;100.00;101607.88;5089876;28;20638;-61